This is the latest recevied weather packets stored in our database for station/object OE6PWE-13. If no packets are shown the sender has not sent any weather packets the latest 10 day(s).
| Time | Temp. | Humidity | Pressure | Rain* | Wind** | Luminosity | Snow |
|---|---|---|---|---|---|---|---|
| 1777537822 | 11.11° C | 33% | 1029 hPa | 0 mm | - | - | - |
| 1777536913 | 10.56° C | 34% | 1029 hPa | 0 mm | - | - | - |
| 1777535113 | 9.44° C | 36% | 1029 hPa | 0 mm | - | - | - |
| 1777534219 | 9.44° C | 37% | 1029 hPa | 0 mm | - | - | - |
| 1777533313 | 8.89° C | 39% | 1029 hPa | 0 mm | - | - | - |
| 1777532420 | 7.22° C | 44% | 1030 hPa | 0 mm | - | - | - |
| 1777531514 | 4.44° C | 52% | 1030 hPa | 0 mm | - | - | - |
| 1777530621 | 3.33° C | 55% | 1030 hPa | 0 mm | - | - | - |
| 1777529713 | 2.22° C | 59% | 1031 hPa | 0 mm | - | - | - |
| 1777528819 | 1.11° C | 65% | 1031 hPa | 0 mm | - | - | - |
| 1777527913 | 0.56° C | 68% | 1031 hPa | 0 mm | - | - | - |
| 1777527021 | 0° C | 72% | 1031 hPa | 0 mm | - | - | - |
| 1777526118 | -0.56° C | 76% | 1031 hPa | 0 mm | - | - | - |
| 1777525221 | -1.11° C | 78% | 1031 hPa | 0 mm | - | - | - |
| 1777524314 | -0.56° C | 76% | 1031 hPa | 0 mm | - | - | - |
| 1777523421 | -1.11° C | 76% | 1030 hPa | 0 mm | - | - | - |
| 1777522513 | -1.67° C | 80% | 1030 hPa | 0 mm | - | - | - |
| 1777520713 | -0.56° C | 76% | 1030 hPa | 0 mm | - | - | - |
| 1777519821 | 0° C | 72% | 1030 hPa | 0 mm | - | - | - |
| 1777518914 | 0.56° C | 70% | 1030 hPa | 0 mm | - | - | - |
| 1777517113 | 2.22° C | 61% | 1030 hPa | 0 mm | - | - | - |
| 1777515313 | 2.78° C | 57% | 1030 hPa | 0 mm | - | - | - |
| 1777514421 | 2.78° C | 56% | 1029 hPa | 0 mm | - | - | - |
| 1777513513 | 3.33° C | 57% | 1029 hPa | 0 mm | - | - | - |
| 1777512620 | 3.33° C | 57% | 1029 hPa | 0 mm | - | - | - |
* Rain latest hour (hover to see other rain measurements)
** Current wind speed in m/s (hover to see current wind gust speed)